Terminal Aerodrome Forecast
Issued by NWS Tulsa, OK

Home | Current Version | Previous Version | Text Only | Print | Product List | Glossary On
Versions: 1 2 3 4 5 6 7 8 9 10 11 12 13 14
000
FTUS44 KTSA 061100
TAFTUL
TAF
KTUL 061135Z 0612/0712 16012KT 6SM -SHRA BR OVC050
      TEMPO 0612/0616 5SM -TSRA BKN025CB
     FM061600 16015G25KT P6SM OVC025
     FM062100 18014G20KT P6SM VCTS BKN040CB
     FM070300 17014G22KT P6SM OVC050 PROB30 0706/0712 6SM -TSRA
      BKN025CB=

USA.gov is the U.S. government's official web portal to all federal, state and local government web resources and services.